Time;durP1;ratioP1;P1;durP2;ratioP2;P2;SDS_P1;SDS_P2;PMS_P1;PMS_P2;Temp;Humidity;BMP_temperature;BMP_pressure;BME280_temperature;BME280_humidity;BME280_pressure;Samples;Min_cycle;Max_cycle;Signal;HPM_P1;HPM_P2
2023/05/09 00:00:53;;;;;;;5.10;2.25;;;;;;;15.91;47.53;101977.00;7390782;19;20022;-52
2023/05/09 00:03:19;;;;;;;5.03;2.20;;;;;;;15.89;47.27;101976.25;7391070;19;20010;-51
2023/05/09 00:05:47;;;;;;;4.43;2.25;;;;;;;15.84;47.54;101978.44;7390536;19;20022;-50
2023/05/09 00:08:14;;;;;;;6.47;2.53;;;;;;;15.79;47.75;101978.75;7390367;19;20014;-50
2023/05/09 00:10:42;;;;;;;4.05;2.10;;;;;;;15.69;48.00;101982.28;7389189;19;20034;-50
2023/05/09 00:13:09;;;;;;;4.03;2.30;;;;;;;15.69;47.97;101979.59;7389176;19;20029;-50
2023/05/09 00:15:36;;;;;;;3.80;2.25;;;;;;;15.68;48.06;101976.09;7395249;19;20007;-49
2023/05/09 00:18:03;;;;;;;6.32;2.47;;;;;;;15.70;48.12;101976.81;7390192;19;20038;-50
2023/05/09 00:20:32;;;;;;;6.18;2.30;;;;;;;15.67;47.98;101970.84;7385269;19;20043;-51
2023/05/09 00:22:59;;;;;;;4.53;2.35;;;;;;;15.63;48.06;101975.53;7390457;19;20488;-49
2023/05/09 00:25:27;;;;;;;4.70;2.17;;;;;;;15.64;48.10;101973.72;7392620;19;20028;-50
2023/05/09 00:27:54;;;;;;;4.85;2.60;;;;;;;15.55;48.27;101969.91;7390427;19;20043;-50
2023/05/09 00:30:21;;;;;;;4.93;2.47;;;;;;;15.54;48.13;101962.88;7387589;19;20025;-51
2023/05/09 00:32:48;;;;;;;5.20;1.83;;;;;;;15.57;48.35;101954.66;7389841;19;20082;-50
2023/05/09 00:35:15;;;;;;;4.32;2.30;;;;;;;15.62;48.08;101960.47;7387002;19;20045;-49
2023/05/09 00:37:42;;;;;;;5.35;2.30;;;;;;;15.56;47.89;101960.94;7390388;19;20018;-47
2023/05/09 00:40:10;;;;;;;4.63;2.40;;;;;;;15.57;47.78;101952.81;7384955;19;20026;-50
2023/05/09 00:42:37;;;;;;;5.00;2.30;;;;;;;15.59;47.60;101955.38;7389637;19;20023;-51
2023/05/09 00:45:05;;;;;;;7.32;2.17;;;;;;;15.64;47.62;101955.00;7390517;19;20113;-51
2023/05/09 00:47:33;;;;;;;5.57;2.28;;;;;;;15.60;47.97;101946.38;7394223;19;20018;-47
2023/05/09 00:50:01;;;;;;;4.35;2.47;;;;;;;15.46;48.30;101946.59;7388661;19;20010;-51
2023/05/09 00:52:29;;;;;;;4.57;2.15;;;;;;;15.49;48.02;101931.19;7385070;19;20018;-52
2023/05/09 00:54:55;;;;;;;4.55;2.10;;;;;;;15.45;48.03;101928.84;7391945;19;20435;-50
2023/05/09 00:57:41;;;;;;;5.07;2.17;;;;;;;15.38;48.13;101931.16;7388875;19;20037;-49
2023/05/09 01:00:28;;;;;;;4.10;2.15;;;;;;;15.39;48.21;101921.31;7381334;19;20452;-51
2023/05/09 01:03:15;;;;;;;4.93;2.70;;;;;;;15.32;48.69;101924.44;7385962;19;20025;-51
2023/05/09 01:05:53;;;;;;;7.00;2.38;;;;;;;15.32;48.38;101919.09;7387329;19;20044;-48
2023/05/09 01:08:36;;;;;;;5.43;2.28;;;;;;;15.35;48.13;101910.88;7388062;19;20038;-48
2023/05/09 01:11:22;;;;;;;4.70;2.20;;;;;;;15.35;48.11;101908.19;7387657;19;20019;-48
2023/05/09 01:14:12;;;;;;;5.55;2.50;;;;;;;15.26;48.77;101911.56;7386845;19;20520;-49
2023/05/09 01:17:13;;;;;;;4.70;2.05;;;;;;;15.21;48.82;101910.19;7390467;19;20015;-52
2023/05/09 01:19:55;;;;;;;4.63;2.20;;;;;;;15.17;48.71;101901.56;7388399;19;20018;-48
2023/05/09 01:22:29;;;;;;;5.13;2.10;;;;;;;15.15;48.48;101902.66;7392650;19;20503;-50
2023/05/09 01:24:56;;;;;;;6.40;2.20;;;;;;;15.13;48.86;101904.59;7394821;19;20443;-50
2023/05/09 01:27:32;;;;;;;7.90;2.45;;;;;;;15.08;48.78;101903.13;7395733;19;20018;-49
2023/05/09 01:30:03;;;;;;;4.95;2.03;;;;;;;15.01;48.94;101895.69;7398271;19;20078;-50
2023/05/09 01:32:34;;;;;;;5.47;2.20;;;;;;;15.01;48.52;101898.34;7393625;19;20018;-50
2023/05/09 01:35:04;;;;;;;5.40;2.00;;;;;;;15.03;48.41;101897.28;7398124;19;20186;-47
2023/05/09 01:37:34;;;;;;;5.35;2.10;;;;;;;15.04;48.51;101890.97;7393841;19;20022;-51
2023/05/09 01:40:29;;;;;;;5.55;2.20;;;;;;;15.13;47.89;101885.91;7394648;19;20014;-49
2023/05/09 01:43:04;;;;;;;4.55;2.00;;;;;;;15.01;48.39;101891.19;7394658;19;20019;-51
2023/05/09 01:45:33;;;;;;;4.10;1.92;;;;;;;14.99;48.33;101884.25;7393289;19;20015;-49
2023/05/09 01:48:01;;;;;;;3.80;2.10;;;;;;;15.00;48.13;101886.00;7397451;19;20437;-49
2023/05/09 01:50:29;;;;;;;4.75;2.55;;;;;;;14.96;47.82;101881.84;7392551;19;20038;-48
2023/05/09 01:52:59;;;;;;;3.92;2.20;;;;;;;14.96;47.75;101881.84;7392518;19;20007;-50
2023/05/09 01:55:28;;;;;;;7.47;2.05;;;;;;;14.98;47.48;101882.56;7397259;19;20033;-48
2023/05/09 01:57:57;;;;;;;4.38;2.20;;;;;;;15.00;47.33;101881.50;7395533;19;20014;-48
2023/05/09 02:00:25;;;;;;;4.90;2.03;;;;;;;14.92;47.67;101872.34;7394632;19;20014;-52
2023/05/09 02:02:54;;;;;;;5.85;2.22;;;;;;;14.81;47.89;101868.66;7394328;19;20490;-50
2023/05/09 02:05:27;;;;;;;6.78;1.98;;;;;;;14.89;47.46;101872.59;7397952;19;20022;-47
2023/05/09 02:07:58;;;;;;;7.68;2.08;;;;;;;14.83;47.32;101864.06;7390623;19;20022;-51
2023/05/09 02:10:29;;;;;;;5.05;2.15;;;;;;;14.73;47.29;101857.72;7392898;19;20024;-52
2023/05/09 02:12:56;;;;;;;6.15;2.00;;;;;;;14.71;47.68;101861.44;7392468;19;20085;-51
2023/05/09 02:15:25;;;;;;;6.35;2.20;;;;;;;14.79;47.40;101859.06;7393268;19;20019;-47
2023/05/09 02:17:52;;;;;;;4.97;1.92;;;;;;;14.81;47.01;101860.66;7391858;19;20017;-49
2023/05/09 02:20:19;;;;;;;5.53;2.30;;;;;;;14.81;46.97;101860.66;7394151;19;20061;-49
2023/05/09 02:22:46;;;;;;;6.18;2.20;;;;;;;14.74;47.20;101864.75;7394461;19;20022;-50
2023/05/09 02:25:14;;;;;;;5.45;2.20;;;;;;;14.71;47.16;101854.31;7395658;19;20479;-47
2023/05/09 02:27:45;;;;;;;5.28;2.28;;;;;;;14.76;46.98;101857.47;7394501;19;20023;-48
2023/05/09 02:30:22;;;;;;;5.18;2.40;;;;;;;14.72;46.91;101860.47;7393466;19;20011;-48
2023/05/09 02:32:52;;;;;;;4.88;2.30;;;;;;;14.55;47.61;101853.72;7392497;19;20015;-51
2023/05/09 02:35:21;;;;;;;4.10;2.15;;;;;;;14.58;47.54;101853.50;7393760;19;20022;-48
2023/05/09 02:37:48;;;;;;;6.88;2.15;;;;;;;14.55;47.67;101848.41;7390725;19;20014;-50
2023/05/09 02:40:17;;;;;;;6.07;2.28;;;;;;;14.59;47.47;101855.22;7392318;19;20030;-50
2023/05/09 02:42:44;;;;;;;4.80;2.17;;;;;;;14.57;47.23;101855.31;7390320;19;20055;-51
2023/05/09 02:45:11;;;;;;;4.15;2.30;;;;;;;14.52;47.37;101854.78;7394941;19;20018;-50
2023/05/09 02:47:38;;;;;;;5.32;2.15;;;;;;;14.48;47.77;101847.94;7394931;19;20033;-49
2023/05/09 02:50:06;;;;;;;5.47;2.38;;;;;;;14.45;47.72;101845.50;7393215;19;20614;-53
2023/05/09 02:52:33;;;;;;;6.32;2.28;;;;;;;14.46;47.59;101846.34;7390787;19;20081;-47
2023/05/09 02:55:02;;;;;;;5.93;2.08;;;;;;;14.43;47.76;101839.44;7390143;19;20038;-49
2023/05/09 02:57:29;;;;;;;6.40;2.10;;;;;;;14.45;47.52;101834.84;7390297;19;20014;-48
2023/05/09 02:59:56;;;;;;;10.63;2.20;;;;;;;14.48;47.29;101837.28;7391327;19;20019;-48
2023/05/09 03:02:23;;;;;;;5.72;2.30;;;;;;;14.42;47.40;101832.41;7389528;19;20018;-50
2023/05/09 03:04:51;;;;;;;4.78;2.20;;;;;;;14.42;47.42;101834.22;7392457;19;20417;-52
2023/05/09 03:07:18;;;;;;;4.90;2.08;;;;;;;14.41;47.28;101833.38;7391383;19;20377;-54
2023/05/09 03:09:45;;;;;;;7.40;2.25;;;;;;;14.38;47.50;101826.47;7390024;19;20025;-52
2023/05/09 03:12:11;;;;;;;5.25;2.13;;;;;;;14.35;47.62;101829.34;7388755;19;20018;-52
2023/05/09 03:14:39;;;;;;;4.22;2.28;;;;;;;14.33;47.71;101830.41;7388531;19;20165;-49
2023/05/09 03:17:06;;;;;;;5.10;2.45;;;;;;;14.24;47.78;101825.75;7390541;19;20015;-48
2023/05/09 03:19:33;;;;;;;8.68;2.38;;;;;;;14.26;47.67;101830.00;7389969;19;20021;-51
2023/05/09 03:22:00;;;;;;;6.43;2.17;;;;;;;14.22;47.52;101825.84;7387145;19;20215;-47
2023/05/09 03:24:27;;;;;;;6.00;2.30;;;;;;;14.22;47.84;101820.53;7390430;19;20014;-51
2023/05/09 03:26:54;;;;;;;5.15;2.47;;;;;;;14.23;47.50;101822.25;7390044;19;20019;-49
2023/05/09 03:29:21;;;;;;;7.60;2.40;;;;;;;14.13;48.35;101818.53;7389237;19;20085;-47
2023/05/09 03:31:48;;;;;;;5.72;2.10;;;;;;;13.98;48.38;101828.47;7391618;19;20051;-51
2023/05/09 03:34:15;;;;;;;5.93;2.30;;;;;;;13.97;49.00;101829.44;7389778;19;20090;-48
2023/05/09 03:36:43;;;;;;;9.07;2.47;;;;;;;13.95;49.02;101833.16;7390927;19;20018;-51
2023/05/09 03:39:10;;;;;;;5.82;2.42;;;;;;;14.06;48.52;101833.25;7390914;19;20019;-48
2023/05/09 03:41:37;;;;;;;6.80;2.70;;;;;;;14.10;48.61;101827.59;7387921;19;20015;-53
2023/05/09 03:44:04;;;;;;;5.72;2.35;;;;;;;13.95;48.92;101822.50;7391184;19;20014;-47
2023/05/09 03:46:31;;;;;;;5.60;2.67;;;;;;;13.89;49.26;101832.63;7389329;19;20125;-51
2023/05/09 03:48:58;;;;;;;6.00;2.40;;;;;;;13.83;49.58;101829.53;7391050;19;20098;-51
2023/05/09 03:51:25;;;;;;;8.02;2.45;;;;;;;13.78;49.68;101835.19;7388761;19;20110;-49
2023/05/09 03:53:52;;;;;;;7.53;2.55;;;;;;;13.90;49.63;101831.66;7389466;19;20056;-50
2023/05/09 03:56:19;;;;;;;6.32;2.33;;;;;;;14.05;49.23;101827.06;7386919;19;20029;-50
2023/05/09 03:58:47;;;;;;;7.03;2.45;;;;;;;14.08;48.81;101816.19;7388992;19;20019;-51
2023/05/09 04:01:14;;;;;;;6.63;2.70;;;;;;;14.00;48.97;101815.03;7387746;19;20019;-51
2023/05/09 04:03:41;;;;;;;5.38;2.30;;;;;;;14.00;49.19;101815.03;7390729;19;20015;-48
2023/05/09 04:06:09;;;;;;;4.53;2.55;;;;;;;14.00;48.97;101801.69;7387570;19;20018;-51
2023/05/09 04:08:36;;;;;;;5.28;2.45;;;;;;;14.08;48.67;101799.34;7390339;19;20095;-52
2023/05/09 04:11:03;;;;;;;6.72;2.70;;;;;;;14.18;48.10;101802.22;7386287;19;20011;-49
2023/05/09 04:13:31;;;;;;;6.82;2.55;;;;;;;14.08;48.42;101796.69;7390431;19;20022;-52
2023/05/09 04:15:58;;;;;;;6.60;2.47;;;;;;;14.09;48.31;101799.25;7386147;19;20498;-48
2023/05/09 04:18:25;;;;;;;6.93;2.55;;;;;;;14.12;48.25;101799.03;7389718;19;20018;-48
2023/05/09 04:20:53;;;;;;;7.18;2.70;;;;;;;14.15;48.11;101796.13;7388156;19;20014;-48
2023/05/09 04:23:20;;;;;;;7.07;3.03;;;;;;;14.10;48.09;101798.28;7387544;19;20502;-50
2023/05/09 04:25:50;;;;;;;7.13;2.55;;;;;;;14.04;48.33;101798.75;7391306;19;20134;-48
2023/05/09 04:28:17;;;;;;;6.60;2.80;;;;;;;14.09;48.21;101798.41;7389491;19;20010;-50
2023/05/09 04:30:44;;;;;;;5.97;2.70;;;;;;;14.04;48.55;101798.75;7389364;19;20018;-48
2023/05/09 04:33:11;;;;;;;5.22;2.50;;;;;;;14.01;48.78;101800.78;7388254;19;20027;-48
2023/05/09 04:35:40;;;;;;;8.77;2.70;;;;;;;14.10;49.07;101794.78;7388366;19;20026;-48
2023/05/09 04:38:07;;;;;;;6.35;2.50;;;;;;;14.21;48.71;101794.00;7385613;19;20078;-48
2023/05/09 04:40:34;;;;;;;5.00;2.80;;;;;;;14.25;48.52;101793.66;7389258;19;20022;-50
2023/05/09 04:43:02;;;;;;;6.15;2.90;;;;;;;14.22;48.49;101791.22;7387964;19;20025;-51
2023/05/09 04:45:29;;;;;;;5.90;2.75;;;;;;;14.25;48.41;101777.69;7389835;19;20029;-49
2023/05/09 04:47:56;;;;;;;6.93;3.10;;;;;;;14.23;48.44;101768.97;7387327;19;20378;-47
2023/05/09 04:50:23;;;;;;;7.05;2.85;;;;;;;14.20;48.68;101777.16;7388653;19;20022;-49
2023/05/09 04:52:50;;;;;;;5.53;2.95;;;;;;;14.15;48.81;101776.63;7387098;19;20052;-50
2023/05/09 04:55:17;;;;;;;7.60;2.97;;;;;;;14.24;48.85;101773.31;7387412;19;20022;-50
2023/05/09 04:57:44;;;;;;;6.30;2.90;;;;;;;14.30;48.61;101774.66;7395163;19;20020;-52
2023/05/09 05:00:12;;;;;;;9.00;3.13;;;;;;;14.31;48.89;101763.91;7396302;19;20022;-47
2023/05/09 05:02:39;;;;;;;6.65;3.17;;;;;;;14.37;48.88;101760.78;7395290;19;20026;-47
2023/05/09 05:05:06;;;;;;;9.30;3.00;;;;;;;14.43;48.76;101756.84;7396713;19;20099;-48
2023/05/09 05:07:38;;;;;;;7.55;2.67;;;;;;;14.47;48.54;101754.78;7394724;19;20018;-51
2023/05/09 05:10:05;;;;;;;7.20;3.10;;;;;;;14.33;48.99;101748.66;7395814;19;20015;-52
2023/05/09 05:12:32;;;;;;;7.45;2.70;;;;;;;14.35;49.25;101749.41;7395183;19;20023;-51
2023/05/09 05:15:00;;;;;;;7.35;3.22;;;;;;;14.44;48.82;101749.69;7394338;19;20022;-51
2023/05/09 05:17:28;;;;;;;8.05;2.90;;;;;;;14.48;48.90;101745.81;7394406;19;20015;-51
2023/05/09 05:19:55;;;;;;;7.15;3.10;;;;;;;14.50;49.06;101752.78;7394215;19;20018;-50
2023/05/09 05:22:23;;;;;;;6.80;3.17;;;;;;;14.55;49.21;101747.94;7391097;19;20100;-49
2023/05/09 05:24:50;;;;;;;10.45;3.40;;;;;;;14.61;48.89;101744.84;7395322;19;20023;-51
2023/05/09 05:27:17;;;;;;;5.93;3.10;;;;;;;14.54;49.28;101740.94;7391977;19;20026;-49
2023/05/09 05:29:44;;;;;;;7.25;3.00;;;;;;;14.57;49.62;101739.81;7395586;19;20022;-50
2023/05/09 05:32:11;;;;;;;7.10;3.30;;;;;;;14.63;49.30;101745.56;7391314;19;20018;-48
2023/05/09 05:34:38;;;;;;;6.00;2.85;;;;;;;14.65;49.52;101744.59;7394912;19;20030;-51
2023/05/09 05:37:05;;;;;;;5.85;2.90;;;;;;;14.69;49.57;101746.06;7392915;19;20017;-50
2023/05/09 05:39:32;;;;;;;11.43;3.30;;;;;;;14.71;49.39;101739.66;7393541;19;20054;-50
2023/05/09 05:41:59;;;;;;;6.93;2.90;;;;;;;14.73;49.34;101737.72;7389301;19;20356;-50
2023/05/09 05:44:26;;;;;;;5.97;2.88;;;;;;;14.78;49.38;101732.03;7394610;19;20332;-52
2023/05/09 05:46:53;;;;;;;7.45;3.33;;;;;;;14.77;49.48;101736.53;7393353;19;20035;-50
2023/05/09 05:49:20;;;;;;;9.88;3.20;;;;;;;14.73;49.46;101735.06;7394706;19;20031;-49
2023/05/09 05:51:47;;;;;;;9.98;3.53;;;;;;;14.76;49.74;101732.13;7390967;19;20026;-46
2023/05/09 05:54:14;;;;;;;7.00;3.33;;;;;;;14.75;49.85;101734.94;7395041;19;20050;-48
2023/05/09 05:56:41;;;;;;;6.75;3.38;;;;;;;14.84;49.76;101726.22;7392032;19;20022;-48
2023/05/09 05:59:08;;;;;;;11.65;3.47;;;;;;;14.83;50.18;101725.38;7395249;19;20355;-50
2023/05/09 06:01:38;;;;;;;7.63;3.40;;;;;;;14.83;50.66;101722.72;7391333;19;20485;-47
2023/05/09 06:04:06;;;;;;;8.00;2.90;;;;;;;14.79;50.77;101723.06;7395169;19;20123;-48
2023/05/09 06:06:33;;;;;;;7.63;3.67;;;;;;;14.92;50.37;101722.97;7389597;19;20018;-49
2023/05/09 06:09:00;;;;;;;7.50;3.92;;;;;;;14.82;50.52;101723.69;7393785;19;20014;-47
2023/05/09 06:11:27;;;;;;;8.65;3.83;;;;;;;14.87;50.55;101723.34;7391140;19;20025;-48
2023/05/09 06:13:54;;;;;;;7.85;3.50;;;;;;;14.84;50.57;101718.22;7395088;19;20018;-49
2023/05/09 06:16:21;;;;;;;8.48;3.50;;;;;;;14.87;50.83;101713.50;7391514;19;20022;-48
2023/05/09 06:18:49;;;;;;;7.00;3.38;;;;;;;14.97;50.55;101719.00;7393843;19;20015;-51
2023/05/09 06:21:17;;;;;;;8.02;3.97;;;;;;;15.02;50.87;101711.50;7391191;19;20030;-52
2023/05/09 06:23:44;;;;;;;8.05;3.55;;;;;;;15.04;50.52;101719.38;7392218;19;20018;-50
2023/05/09 06:26:14;;;;;;;6.78;3.20;;;;;;;15.08;50.47;101704.84;7389219;19;20627;-48
2023/05/09 06:28:41;;;;;;;8.57;3.90;;;;;;;15.11;50.63;101707.28;7393163;19;20014;-50
2023/05/09 06:31:08;;;;;;;8.07;3.72;;;;;;;15.17;50.86;101697.94;7390647;19;20018;-50
2023/05/09 06:33:35;;;;;;;7.15;3.92;;;;;;;15.18;51.14;101692.47;7393602;19;20031;-52
2023/05/09 06:36:03;;;;;;;10.48;4.32;;;;;;;15.21;51.14;101697.56;7386969;19;20086;-50
2023/05/09 06:38:30;;;;;;;9.88;4.90;;;;;;;15.21;50.94;101691.38;7393220;19;20341;-50
2023/05/09 06:40:57;;;;;;;8.55;4.10;;;;;;;15.17;51.29;101687.25;7390588;19;20026;-49
2023/05/09 06:43:24;;;;;;;8.75;4.05;;;;;;;15.18;51.39;101683.63;7393976;19;20018;-51
2023/05/09 06:45:51;;;;;;;8.75;4.07;;;;;;;15.24;51.09;101675.16;7391855;19;20017;-49
2023/05/09 06:48:18;;;;;;;6.90;3.70;;;;;;;15.30;51.24;101675.53;7393618;19;20014;-51
2023/05/09 06:50:45;;;;;;;6.82;4.13;;;;;;;15.39;51.22;101675.75;7391797;19;20033;-48
2023/05/09 06:53:12;;;;;;;7.60;3.65;;;;;;;15.39;51.31;101678.44;7390766;19;20475;-49
2023/05/09 06:55:39;;;;;;;7.47;3.97;;;;;;;15.44;51.53;101673.56;7391236;19;20018;-52
2023/05/09 06:58:06;;;;;;;9.35;4.13;;;;;;;15.52;51.70;101666.63;7391379;19;20010;-51
2023/05/09 07:00:34;;;;;;;9.88;4.43;;;;;;;15.57;51.48;101666.28;7391488;19;20102;-47
2023/05/09 07:03:01;;;;;;;8.20;4.30;;;;;;;15.59;51.99;101665.16;7389436;19;20011;-50
2023/05/09 07:05:28;;;;;;;8.02;4.68;;;;;;;15.70;51.61;101661.66;7390521;19;20030;-50
2023/05/09 07:07:55;;;;;;;7.55;4.55;;;;;;;15.69;51.86;101653.78;7390809;19;20040;-49
2023/05/09 07:10:23;;;;;;;7.72;4.65;;;;;;;15.78;51.82;101648.53;7391474;19;20053;-49
2023/05/09 07:12:50;;;;;;;9.25;4.38;;;;;;;15.89;52.22;101638.81;7390651;19;20090;-50
2023/05/09 07:15:17;;;;;;;9.77;4.55;;;;;;;15.99;52.35;101650.44;7390311;19;20027;-48
2023/05/09 07:17:58;;;;;;;9.18;5.35;;;;;;;16.04;52.62;101641.06;7389378;19;20026;-51
2023/05/09 07:20:25;;;;;;;9.88;5.13;;;;;;;16.08;52.68;101642.50;7391127;19;20022;-50
2023/05/09 07:22:52;;;;;;;8.82;4.65;;;;;;;16.14;52.55;101642.97;7388394;19;20017;-51
2023/05/09 07:25:19;;;;;;;8.65;4.53;;;;;;;16.21;52.28;101645.00;7390020;19;20022;-48
2023/05/09 07:27:46;;;;;;;8.32;4.32;;;;;;;16.32;52.46;101634.25;7389561;19;20081;-50
2023/05/09 07:30:13;;;;;;;8.07;4.53;;;;;;;16.42;52.78;101634.34;7391157;19;20483;-50
2023/05/09 07:32:41;;;;;;;9.63;4.95;;;;;;;16.45;52.38;101626.06;7389752;19;20018;-51
2023/05/09 07:35:08;;;;;;;9.27;4.80;;;;;;;16.52;51.88;101616.56;7389557;19;20018;-51
2023/05/09 07:37:35;;;;;;;8.15;4.30;;;;;;;16.56;52.06;101612.66;7390312;19;20047;-50
2023/05/09 07:40:04;;;;;;;8.75;5.00;;;;;;;16.63;52.28;101612.94;7392160;19;20015;-47
2023/05/09 07:42:32;;;;;;;7.13;4.70;;;;;;;16.71;52.53;101601.59;7390152;19;20022;-51
2023/05/09 07:44:59;;;;;;;8.73;4.97;;;;;;;16.79;52.31;101609.84;7389450;19;20014;-50
2023/05/09 07:47:26;;;;;;;12.65;5.43;;;;;;;16.86;52.45;101602.13;7393853;19;20018;-47
2023/05/09 07:49:53;;;;;;;9.98;5.40;;;;;;;16.81;52.49;101607.88;7391286;19;20023;-49
2023/05/09 07:52:20;;;;;;;10.73;5.50;;;;;;;16.86;52.63;101596.78;7389358;19;20098;-50
2023/05/09 07:54:47;;;;;;;8.15;4.97;;;;;;;16.94;52.59;101595.16;7389212;19;20420;-51
2023/05/09 07:57:15;;;;;;;10.30;5.50;;;;;;;16.97;52.46;101597.53;7391183;19;20018;-49
2023/05/09 07:59:42;;;;;;;11.68;5.88;;;;;;;16.99;52.49;101586.72;7388602;19;20018;-50
2023/05/09 08:02:09;;;;;;;11.32;5.32;;;;;;;17.05;52.19;101583.47;7390096;19;20019;-51
2023/05/09 08:04:37;;;;;;;10.60;5.22;;;;;;;17.09;52.64;101576.03;7388326;19;20018;-51
2023/05/09 08:07:06;;;;;;;9.55;5.50;;;;;;;17.16;53.00;101578.03;7391021;19;20043;-53
2023/05/09 08:09:33;;;;;;;9.68;5.57;;;;;;;17.23;52.84;101567.63;7388098;19;20018;-47
2023/05/09 08:12:00;;;;;;;9.10;5.70;;;;;;;17.27;52.65;101567.22;7389809;19;20039;-46
2023/05/09 08:14:27;;;;;;;11.90;6.28;;;;;;;17.27;52.90;101566.38;7389048;19;20023;-55
2023/05/09 08:16:54;;;;;;;11.02;6.28;;;;;;;17.26;52.75;101562.84;7387371;19;20019;-47
2023/05/09 08:19:24;;;;;;;13.65;6.35;;;;;;;17.29;52.94;101561.75;7389769;19;20014;-46
2023/05/09 08:21:52;;;;;;;9.52;6.15;;;;;;;17.32;53.09;101549.88;7389281;19;20356;-48
2023/05/09 08:24:19;;;;;;;10.68;5.88;;;;;;;17.34;53.43;101547.94;7389826;19;20038;-50
2023/05/09 08:26:46;;;;;;;10.55;6.20;;;;;;;17.42;53.69;101540.91;7388574;19;20027;-47
2023/05/09 08:29:13;;;;;;;10.82;6.65;;;;;;;17.49;53.26;101551.91;7389819;19;20078;-47
2023/05/09 08:31:40;;;;;;;9.30;6.53;;;;;;;17.56;53.15;101542.34;7389401;19;20043;-50
2023/05/09 08:34:08;;;;;;;9.98;6.38;;;;;;;17.63;53.94;101530.09;7390148;19;20015;-51
2023/05/09 08:36:35;;;;;;;10.07;6.57;;;;;;;17.75;53.79;101536.19;7387762;19;20029;-48
2023/05/09 08:39:02;;;;;;;10.93;7.47;;;;;;;17.73;54.02;101530.06;7389641;19;20019;-52
2023/05/09 08:41:34;;;;;;;13.05;6.80;;;;;;;17.73;54.31;101538.97;7389472;19;20604;-51
2023/05/09 08:44:03;;;;;;;12.50;7.17;;;;;;;17.71;54.16;101530.22;7390282;19;20082;-50
2023/05/09 08:46:35;;;;;;;9.95;6.90;;;;;;;17.71;54.10;101529.38;7388818;19;20018;-51
2023/05/09 08:49:06;;;;;;;12.88;6.85;;;;;;;17.78;54.23;101534.06;7389868;19;20018;-47
2023/05/09 08:51:34;;;;;;;12.57;7.82;;;;;;;17.83;54.80;101532.81;7387842;19;20025;-49
2023/05/09 08:54:02;;;;;;;11.40;6.80;;;;;;;17.85;54.38;101534.34;7390185;19;20487;-47
2023/05/09 08:56:30;;;;;;;10.38;6.53;;;;;;;17.95;54.56;101519.09;7387795;19;20015;-47
2023/05/09 08:58:57;;;;;;;13.35;7.10;;;;;;;17.99;54.23;101511.63;7389543;19;20010;-47
2023/05/09 09:01:28;;;;;;;11.40;7.20;;;;;;;18.07;54.27;101517.13;7387581;19;20043;-48
2023/05/09 09:03:55;;;;;;;13.73;6.72;;;;;;;18.12;54.48;101506.81;7389841;19;20011;-46
2023/05/09 09:06:24;;;;;;;10.32;6.80;;;;;;;18.10;54.33;101500.75;7386989;19;20732;-46
2023/05/09 09:08:53;;;;;;;12.93;7.75;;;;;;;18.15;54.07;101505.69;7386939;19;20018;-49
2023/05/09 09:11:21;;;;;;;12.90;7.75;;;;;;;18.18;53.71;101495.50;7388253;19;20076;-46
2023/05/09 09:13:51;;;;;;;11.35;7.70;;;;;;;18.22;54.25;101496.06;7389251;19;20444;-48
2023/05/09 09:16:21;;;;;;;11.68;7.90;;;;;;;18.23;53.44;101487.03;7387461;19;20487;-47
2023/05/09 09:18:51;;;;;;;13.60;7.50;;;;;;;18.26;54.16;101478.69;7388043;19;20024;-47
2023/05/09 09:21:19;;;;;;;11.90;7.18;;;;;;;18.31;54.15;101478.25;7388021;19;20023;-52
2023/05/09 09:23:47;;;;;;;14.82;7.47;;;;;;;18.35;54.33;101483.19;7387383;19;20033;-50
2023/05/09 09:26:15;;;;;;;11.98;7.30;;;;;;;18.37;54.13;101486.56;7388649;19;20047;-49
2023/05/09 09:28:42;;;;;;;10.95;7.07;;;;;;;18.51;54.54;101471.84;7386179;19;20030;-50
2023/05/09 09:31:27;;;;;;;12.52;7.20;;;;;;;18.52;53.63;101466.34;7388020;19;20018;-49
2023/05/09 09:34:01;;;;;;;12.48;7.10;;;;;;;18.51;54.19;101455.75;7388516;19;20010;-49
2023/05/09 09:36:31;;;;;;;10.30;7.38;;;;;;;18.58;54.54;101448.78;7385401;19;20011;-51
2023/05/09 09:38:59;;;;;;;11.45;7.43;;;;;;;18.70;54.54;101447.66;7390480;19;20034;-50
2023/05/09 09:41:34;;;;;;;10.95;7.18;;;;;;;18.82;54.44;101450.16;7387900;19;20056;-48
2023/05/09 09:44:12;;;;;;;13.02;7.80;;;;;;;18.93;53.81;101455.31;7395890;19;20014;-47
2023/05/09 09:46:55;;;;;;;11.93;7.55;;;;;;;18.96;53.84;101454.97;7395761;19;20024;-50
2023/05/09 09:49:24;;;;;;;10.70;7.38;;;;;;;19.03;53.57;101453.38;7394798;19;20026;-49
2023/05/09 09:51:58;;;;;;;10.93;7.07;;;;;;;19.13;53.41;101454.19;7393144;19;20448;-52
2023/05/09 09:54:26;;;;;;;12.95;7.50;;;;;;;19.08;53.70;101451.13;7395548;19;20035;-47
2023/05/09 09:56:55;;;;;;;11.80;7.32;;;;;;;19.17;54.47;101444.81;7393274;19;20022;-51
2023/05/09 09:59:24;;;;;;;11.38;7.53;;;;;;;19.36;53.65;101448.38;7394858;19;20021;-51
2023/05/09 10:01:53;;;;;;;13.05;7.25;;;;;;;19.47;54.16;101440.06;7393475;19;20018;-48
2023/05/09 10:04:20;;;;;;;12.13;7.70;;;;;;;19.55;53.59;101445.50;7393650;19;20014;-49
2023/05/09 10:06:56;;;;;;;13.23;7.97;;;;;;;19.65;52.91;101432.88;7394074;19;20484;-48
2023/05/09 10:09:24;;;;;;;11.23;7.25;;;;;;;19.64;53.33;101433.84;7392892;19;20108;-48
2023/05/09 10:11:52;;;;;;;11.93;8.13;;;;;;;19.68;53.26;101423.63;7393034;19;20014;-49
2023/05/09 10:14:22;;;;;;;12.43;7.40;;;;;;;19.70;53.18;101421.66;7394615;19;20030;-48
2023/05/09 10:16:57;;;;;;;11.07;7.72;;;;;;;19.70;52.70;101414.44;7392197;19;20018;-49
2023/05/09 10:19:26;;;;;;;11.38;7.13;;;;;;;19.77;53.33;101411.13;7392692;19;20035;-51
2023/05/09 10:21:55;;;;;;;11.43;7.45;;;;;;;19.95;53.18;101402.00;7392565;19;20031;-52
2023/05/09 10:24:34;;;;;;;10.52;6.70;;;;;;;20.09;52.81;101400.56;7394673;19;20487;-46
2023/05/09 10:27:05;;;;;;;11.93;7.88;;;;;;;20.11;52.08;101401.28;7393997;19;20007;-48
2023/05/09 10:29:40;;;;;;;11.32;8.00;;;;;;;20.19;51.87;101395.09;7393488;19;20018;-51
2023/05/09 10:32:30;;;;;;;10.63;7.70;;;;;;;20.25;50.92;101377.47;7392049;19;20015;-47
2023/05/09 10:35:03;;;;;;;14.18;8.38;;;;;;;20.17;51.45;101373.72;7393785;19;20029;-50
2023/05/09 10:37:30;;;;;;;12.70;7.30;;;;;;;20.21;51.60;101366.16;7392066;19;20018;-47
2023/05/09 10:40:03;;;;;;;11.60;7.13;;;;;;;20.41;51.20;101369.44;7393480;19;20089;-50
2023/05/09 10:42:31;;;;;;;14.98;8.38;;;;;;;20.47;51.31;101359.91;7391081;19;20479;-47
2023/05/09 10:44:58;;;;;;;13.80;8.02;;;;;;;20.50;51.46;101356.91;7392052;19;20034;-51
2023/05/09 10:47:26;;;;;;;10.68;7.00;;;;;;;20.46;50.87;101342.91;7394271;19;20096;-48
2023/05/09 10:49:54;;;;;;;13.27;7.68;;;;;;;20.53;51.02;101343.13;7392702;19;20014;-50
2023/05/09 10:52:22;;;;;;;11.05;6.82;;;;;;;20.57;50.69;101341.81;7390997;19;20011;-52
2023/05/09 10:55:00;;;;;;;12.07;6.95;;;;;;;20.73;50.10;101339.16;7390323;19;20015;-50
2023/05/09 10:57:29;;;;;;;13.32;7.80;;;;;;;20.70;50.55;101328.72;7391892;19;20019;-49
2023/05/09 10:59:57;;;;;;;11.60;7.18;;;;;;;20.63;50.36;101331.22;7392982;19;20020;-47
2023/05/09 11:02:28;;;;;;;10.40;6.78;;;;;;;20.67;50.30;101327.19;7391774;19;20028;-47
2023/05/09 11:05:18;;;;;;;12.05;6.85;;;;;;;20.85;49.50;101324.34;7391798;19;20023;-47
2023/05/09 11:07:45;;;;;;;10.05;6.63;;;;;;;20.88;49.63;101320.50;7393693;19;20421;-48
2023/05/09 11:10:17;;;;;;;10.65;7.13;;;;;;;20.97;49.63;101324.03;7389916;19;20018;-49
2023/05/09 11:12:58;;;;;;;15.85;6.90;;;;;;;21.12;49.93;101319.66;7393181;19;20036;-48
2023/05/09 11:15:28;;;;;;;12.20;7.80;;;;;;;21.03;49.48;101316.13;7390225;19;20018;-51
2023/05/09 11:18:05;;;;;;;10.95;6.65;;;;;;;;;;7393062;19;20022;-48
2023/05/09 11:20:34;;;;;;;11.43;7.53;;;;;;;21.04;49.66;101308.91;7389400;19;20019;-47
2023/05/09 11:23:05;;;;;;;10.23;6.53;;;;;;;21.00;49.91;101307.56;7392906;19;20510;-50
2023/05/09 11:25:32;;;;;;;10.60;6.53;;;;;;;21.10;50.10;101317.16;7391462;19;20025;-47
2023/05/09 11:28:00;;;;;;;11.35;6.90;;;;;;;21.13;49.48;101305.19;7390306;19;20027;-47
2023/05/09 11:30:38;;;;;;;11.07;6.88;;;;;;;20.98;49.59;101296.94;7388976;19;20039;-50
2023/05/09 11:33:06;;;;;;;11.88;6.93;;;;;;;20.81;49.70;101300.63;7390918;19;20030;-47